Time;durP1;ratioP1;P1;durP2;ratioP2;P2;SDS_P1;SDS_P2;PMS_P1;PMS_P2;Temp;Humidity;BMP_temperature;BMP_pressure;BME280_temperature;BME280_humidity;BME280_pressure;Samples;Min_cycle;Max_cycle;Signal;HPM_P1;HPM_P2
2021/08/12 00:01:59;;;;;;;10.30;7.17;;;17.60;1.00;18.30;100942.00;;;;5076826;28;20481;-77
2021/08/12 00:04:31;;;;;;;7.77;6.87;;;17.50;1.00;18.60;100916.00;;;;5074291;28;20475;-76
2021/08/12 00:06:59;;;;;;;8.60;7.20;;;17.50;1.00;18.50;100937.00;;;;5076283;28;20455;-77
2021/08/12 00:09:28;;;;;;;8.20;6.97;;;17.50;1.00;18.50;100901.00;;;;5061120;28;20856;-77
2021/08/12 00:11:57;;;;;;;9.53;7.13;;;17.60;1.00;18.50;100916.00;;;;5087763;28;20489;-77
2021/08/12 00:14:25;;;;;;;7.07;6.37;;;17.50;1.00;18.50;100939.00;;;;5100995;28;20474;-77
2021/08/12 00:16:54;;;;;;;10.43;7.53;;;17.50;1.00;18.50;100898.00;;;;5080498;28;20463;-76
2021/08/12 00:19:22;;;;;;;10.10;6.87;;;17.60;1.00;18.50;100941.00;;;;5072323;28;20506;-77
2021/08/12 00:21:52;;;;;;;11.00;7.17;;;17.60;1.00;18.50;100899.00;;;;5097953;28;20518;-77
2021/08/12 00:24:21;;;;;;;10.67;6.87;;;17.60;1.00;18.50;100886.00;;;;5090167;28;20458;-77
2021/08/12 00:26:50;;;;;;;16.50;8.20;;;17.60;1.00;18.40;100930.00;;;;5101796;28;20423;-76
2021/08/12 00:29:18;;;;;;;14.07;8.10;;;17.50;1.00;18.40;100877.00;;;;5094136;28;20533;-76
2021/08/12 00:31:49;;;;;;;11.80;7.00;;;17.60;1.00;18.40;100926.00;;;;5080821;28;20454;-76
2021/08/12 00:34:18;;;;;;;8.10;6.40;;;17.60;1.00;18.40;100942.00;;;;5077824;28;20520;-76
2021/08/12 00:36:46;;;;;;;11.63;7.10;;;17.50;1.00;18.40;100922.00;;;;5077779;28;20451;-75
2021/08/12 00:39:16;;;;;;;7.13;6.20;;;17.40;1.00;18.30;100918.00;;;;5057929;28;20458;-76
2021/08/12 00:41:45;;;;;;;9.50;6.40;;;17.40;1.00;18.30;100943.00;;;;5054801;28;20590;-76
2021/08/12 00:44:15;;;;;;;18.67;9.03;;;17.30;1.00;18.30;100892.00;;;;5055608;28;20478;-76
2021/08/12 00:46:44;;;;;;;28.87;9.27;;;17.30;1.00;18.30;100922.00;;;;5072772;28;20474;-76
2021/08/12 00:49:16;;;;;;;19.97;9.20;;;17.30;1.00;18.20;100944.00;;;;5054907;28;20503;-75
2021/08/12 00:51:48;;;;;;;12.03;6.80;;;17.30;1.00;18.20;100937.00;;;;5055575;28;20457;-76
2021/08/12 00:54:19;;;;;;;8.07;6.70;;;17.30;1.00;18.20;100933.00;;;;5056032;28;20482;-75
2021/08/12 00:56:49;;;;;;;7.33;6.50;;;17.30;1.00;18.20;100948.00;;;;5065679;28;20987;-76
2021/08/12 00:59:17;;;;;;;8.43;6.70;;;17.20;1.00;18.10;100941.00;;;;5062401;28;20509;-76
2021/08/12 01:01:46;;;;;;;10.97;6.33;;;17.20;1.00;18.10;100920.00;;;;5072197;28;20578;-76
2021/08/12 01:04:14;;;;;;;8.40;6.90;;;17.20;1.00;18.10;100944.00;;;;5072322;28;20481;-76
2021/08/12 01:06:53;;;;;;;8.57;6.50;;;17.20;1.00;18.10;100937.00;;;;5057697;28;20450;-76
2021/08/12 01:09:38;;;;;;;8.90;6.27;;;17.10;1.00;18.00;100946.00;;;;5057260;28;20449;-76
2021/08/12 01:12:15;;;;;;;6.77;6.00;;;17.10;1.00;18.00;100953.00;;;;5053559;28;20543;-76
2021/08/12 01:14:55;;;;;;;6.73;5.90;;;17.00;1.00;18.00;100943.00;;;;5058078;28;20870;-77
2021/08/12 01:17:31;;;;;;;9.30;6.30;;;17.00;1.00;18.00;100944.00;;;;5069954;28;20931;-77
2021/08/12 01:20:35;;;;;;;9.23;6.77;;;17.20;1.00;18.10;100935.00;;;;5070791;28;20462;-77
2021/08/12 01:23:09;;;;;;;8.03;6.43;;;17.10;1.00;18.10;100957.00;;;;5056831;28;20457;-77
2021/08/12 01:25:43;;;;;;;8.23;6.20;;;17.20;1.00;18.20;100936.00;;;;5053779;28;20548;-77
2021/08/12 01:28:18;;;;;;;7.40;6.60;;;17.30;1.00;18.10;100943.00;;;;5053852;28;20451;-76
2021/08/12 01:31:00;;;;;;;8.43;6.53;;;17.30;1.00;18.30;100926.00;;;;5055556;28;20447;-77
2021/08/12 01:33:42;;;;;;;7.33;6.20;;;17.40;1.00;18.30;100959.00;;;;5058320;28;20442;-77
2021/08/12 01:36:14;;;;;;;8.70;6.27;;;17.40;1.00;18.30;100952.00;;;;5066234;28;20462;-77
2021/08/12 01:38:45;;;;;;;7.43;6.27;;;17.40;1.00;18.30;100946.00;;;;5058053;28;20446;-75
2021/08/12 01:41:14;;;;;;;11.13;7.03;;;17.40;1.00;18.30;100955.00;;;;5071624;28;20490;-76
2021/08/12 01:43:43;;;;;;;6.40;5.63;;;17.40;1.00;18.20;100954.00;;;;5055000;28;20478;-76
2021/08/12 01:46:12;;;;;;;6.40;5.70;;;17.30;1.00;18.10;100948.00;;;;5068207;28;20465;-75
2021/08/12 01:48:42;;;;;;;7.00;6.20;;;17.30;1.00;18.20;100948.00;;;;5072517;28;20435;-75
2021/08/12 01:51:14;;;;;;;7.03;6.33;;;17.30;1.00;18.20;100919.00;;;;5071634;28;20447;-76
2021/08/12 01:53:43;;;;;;;9.00;6.30;;;17.30;1.00;18.20;100921.00;;;;5073553;28;20481;-76
2021/08/12 01:56:14;;;;;;;10.27;6.53;;;17.30;1.00;18.10;100908.00;;;;5056805;28;20457;-76
2021/08/12 01:58:44;;;;;;;6.50;5.70;;;17.30;1.00;18.10;100910.00;;;;5064172;28;20454;-76
2021/08/12 02:01:13;;;;;;;7.70;6.30;;;17.30;1.00;18.10;100924.00;;;;5074060;28;20542;-76
2021/08/12 02:03:42;;;;;;;6.60;6.00;;;17.40;1.00;18.10;100942.00;;;;5060176;28;20502;-75
2021/08/12 02:06:15;;;;;;;10.60;6.60;;;17.30;1.00;18.10;100933.00;;;;5075605;28;20465;-76
2021/08/12 02:08:44;;;;;;;9.30;6.27;;;17.20;1.00;18.00;100938.00;;;;5074975;28;20474;-76
2021/08/12 02:11:12;;;;;;;10.03;6.40;;;17.20;1.00;18.00;100938.00;;;;5073874;28;20565;-76
2021/08/12 02:13:41;;;;;;;9.13;6.90;;;17.10;1.00;18.00;100939.00;;;;5071432;28;20523;-76
2021/08/12 02:16:09;;;;;;;7.30;6.50;;;17.10;1.00;18.00;100928.00;;;;5078011;28;20447;-76
2021/08/12 02:18:42;;;;;;;7.40;6.70;;;17.10;1.00;18.00;100930.00;;;;5070030;28;20446;-76
2021/08/12 02:21:16;;;;;;;9.10;7.10;;;17.10;1.00;17.90;100905.00;;;;5083434;28;20458;-75
2021/08/12 02:23:55;;;;;;;11.80;7.33;;;17.10;1.00;17.90;100924.00;;;;5061065;28;20473;-76
2021/08/12 02:26:25;;;;;;;9.10;6.97;;;17.20;1.00;17.80;100929.00;;;;5063540;28;20970;-76
2021/08/12 02:28:54;;;;;;;7.90;6.20;;;17.00;1.00;17.90;100924.00;;;;5058470;28;20545;-76
2021/08/12 02:31:23;;;;;;;10.30;6.50;;;17.00;1.00;17.80;100915.00;;;;5074501;28;20445;-76
2021/08/12 02:33:55;;;;;;;7.53;6.70;;;17.00;1.00;17.80;100917.00;;;;5074143;28;20481;-76
2021/08/12 02:36:27;;;;;;;7.63;6.57;;;17.00;1.00;17.80;100926.00;;;;5070889;28;20438;-75
2021/08/12 02:38:56;;;;;;;7.73;6.73;;;16.90;1.00;17.80;100918.00;;;;5056484;28;20519;-76
2021/08/12 02:41:26;;;;;;;7.97;7.00;;;16.90;1.00;17.70;100884.00;;;;5052685;28;21030;-75
2021/08/12 02:43:56;;;;;;;12.40;6.97;;;16.80;1.00;17.70;100919.00;;;;5070013;28;20467;-76
2021/08/12 02:46:27;;;;;;;7.63;6.40;;;16.90;1.00;17.70;100925.00;;;;5054815;28;20553;-76
2021/08/12 02:48:57;;;;;;;8.23;6.50;;;16.90;1.00;17.70;100916.00;;;;5042271;28;20477;-76
2021/08/12 02:51:28;;;;;;;7.50;6.33;;;17.00;1.00;17.60;100912.00;;;;5062946;28;20451;-75
2021/08/12 02:53:57;;;;;;;8.20;7.17;;;16.80;1.00;17.60;100912.00;;;;5056018;28;20463;-75
2021/08/12 02:56:26;;;;;;;8.07;7.00;;;16.70;1.00;17.60;100903.00;;;;5058017;28;20451;-75
2021/08/12 02:58:56;;;;;;;8.87;7.50;;;16.60;1.00;17.50;100906.00;;;;5066387;28;20542;-75
2021/08/12 03:01:28;;;;;;;8.57;7.17;;;16.60;1.00;17.50;100913.00;;;;5058772;28;20936;-75
2021/08/12 03:03:58;;;;;;;8.40;7.50;;;16.70;1.00;17.50;100895.00;;;;5059017;28;20486;-75
2021/08/12 03:06:28;;;;;;;14.63;6.90;;;16.70;1.00;17.50;100901.00;;;;5056696;28;20453;-76
2021/08/12 03:08:58;;;;;;;9.73;7.57;;;16.70;1.00;17.50;100884.00;;;;5060650;28;20459;-76
2021/08/12 03:11:28;;;;;;;8.10;7.30;;;16.70;1.00;17.40;100905.00;;;;5059058;28;20443;-75
2021/08/12 03:13:59;;;;;;;12.43;7.60;;;16.70;1.00;17.40;100907.00;;;;5057285;28;21103;-74
2021/08/12 03:16:28;;;;;;;8.53;6.60;;;16.70;1.00;17.40;100879.00;;;;5075154;28;20490;-74
2021/08/12 03:18:56;;;;;;;7.90;6.80;;;16.60;1.00;17.40;100904.00;;;;5058753;28;20455;-75
2021/08/12 03:21:25;;;;;;;8.47;7.40;;;16.50;1.00;17.30;100903.00;;;;5061280;28;20446;-75
2021/08/12 03:24:01;;;;;;;12.93;7.50;;;16.50;1.00;17.30;100861.00;;;;5074034;28;20565;-75
2021/08/12 03:26:30;;;;;;;8.60;7.70;;;16.50;1.00;17.30;100897.00;;;;5078095;28;20561;-74
2021/08/12 03:28:58;;;;;;;10.53;6.70;;;16.50;1.00;17.30;100889.00;;;;5056826;28;20450;-76
2021/08/12 03:31:26;;;;;;;9.57;7.37;;;16.50;1.00;17.30;100852.00;;;;5058340;28;20958;-75
2021/08/12 03:33:55;;;;;;;7.70;6.90;;;16.40;1.00;17.30;100900.00;;;;5057060;28;20473;-76
2021/08/12 03:36:23;;;;;;;8.27;7.10;;;16.40;1.00;17.20;100900.00;;;;5058530;28;21195;-76
2021/08/12 03:38:54;;;;;;;9.87;7.13;;;16.40;1.00;17.20;100898.00;;;;5075385;28;21603;-75
2021/08/12 03:41:22;;;;;;;10.63;8.07;;;16.40;1.00;17.20;100892.00;;;;5059048;28;20451;-75
2021/08/12 03:43:50;;;;;;;10.10;7.60;;;16.30;1.00;17.20;100899.00;;;;5101862;28;20454;-75
2021/08/12 03:46:19;;;;;;;8.80;7.63;;;16.40;1.00;17.20;100891.00;;;;5088179;28;20435;-76
2021/08/12 03:48:48;;;;;;;8.37;7.50;;;16.40;1.00;17.10;100870.00;;;;5076144;28;20892;-75
2021/08/12 03:51:16;;;;;;;13.17;7.67;;;16.40;1.00;17.10;100869.00;;;;5063412;28;20556;-76
2021/08/12 03:53:45;;;;;;;9.30;7.30;;;16.30;1.00;17.10;100883.00;;;;5060897;28;20505;-75
2021/08/12 03:56:14;;;;;;;9.97;8.00;;;16.40;1.00;17.10;100923.00;;;;5060026;28;20486;-75
2021/08/12 03:58:42;;;;;;;8.63;7.30;;;16.30;1.00;17.10;100863.00;;;;5057196;28;20461;-76
2021/08/12 04:01:11;;;;;;;9.40;7.80;;;16.30;1.00;17.10;100903.00;;;;5059419;28;20457;-75
2021/08/12 04:03:40;;;;;;;8.13;7.30;;;16.30;1.00;17.10;100897.00;;;;5058535;28;20520;-76
2021/08/12 04:06:08;;;;;;;9.50;8.10;;;16.30;1.00;17.10;100898.00;;;;5059738;28;20951;-76
2021/08/12 04:08:37;;;;;;;8.37;7.50;;;16.30;1.00;17.10;100874.00;;;;5066288;28;20520;-75
2021/08/12 04:11:07;;;;;;;8.40;7.50;;;16.20;1.00;17.00;100905.00;;;;5069527;28;20478;-75
2021/08/12 04:13:37;;;;;;;9.07;7.93;;;16.30;1.00;17.10;100905.00;;;;5096250;28;20466;-75
2021/08/12 04:16:06;;;;;;;8.20;7.40;;;16.30;1.00;17.10;100912.00;;;;5075114;28;20525;-75
2021/08/12 04:18:35;;;;;;;8.80;7.80;;;16.30;1.00;17.10;100916.00;;;;5080155;28;20459;-75
2021/08/12 04:21:03;;;;;;;9.13;7.97;;;16.30;1.00;17.10;100900.00;;;;5071465;28;20476;-75
2021/08/12 04:23:32;;;;;;;10.97;7.23;;;16.40;1.00;17.20;100923.00;;;;5061194;28;20486;-75
2021/08/12 04:26:01;;;;;;;9.83;6.90;;;16.30;1.00;17.10;100888.00;;;;5059891;28;20470;-76
2021/08/12 04:28:49;;;;;;;10.27;7.07;;;16.50;1.00;17.20;100921.00;;;;5078778;28;20533;-75
2021/08/12 04:31:18;;;;;;;9.73;7.13;;;16.40;1.00;17.20;100918.00;;;;5074246;28;20451;-76
2021/08/12 04:33:46;;;;;;;10.20;7.67;;;16.40;1.00;17.30;100929.00;;;;5057487;28;20475;-76
2021/08/12 04:36:15;;;;;;;10.43;7.20;;;16.40;1.00;17.30;100923.00;;;;5077136;28;20952;-76
2021/08/12 04:38:44;;;;;;;9.60;7.20;;;16.60;1.00;17.20;100917.00;;;;5070711;28;20478;-76
2021/08/12 04:41:13;;;;;;;9.93;6.93;;;16.50;1.00;17.40;100911.00;;;;5061113;28;20457;-76
2021/08/12 04:43:43;;;;;;;10.90;8.70;;;16.50;1.00;17.50;100917.00;;;;5066134;28;20946;-75
2021/08/12 04:46:12;;;;;;;10.90;8.27;;;16.50;1.00;17.50;100932.00;;;;5055508;28;20569;-75
2021/08/12 04:48:42;;;;;;;11.30;8.30;;;16.60;1.00;17.60;100917.00;;;;5060539;28;20459;-76
2021/08/12 04:51:11;;;;;;;13.50;7.70;;;16.70;1.00;17.70;100923.00;;;;5072590;28;20458;-75
2021/08/12 04:53:40;;;;;;;10.37;7.80;;;16.80;1.00;17.80;100919.00;;;;5057075;28;20490;-76
2021/08/12 04:56:08;;;;;;;10.80;7.43;;;16.90;1.00;17.90;100938.00;;;;5056253;28;20439;-76
2021/08/12 04:58:37;;;;;;;9.77;7.13;;;16.90;1.00;17.90;100900.00;;;;5076430;28;20442;-76
2021/08/12 05:01:05;;;;;;;12.67;6.87;;;17.00;1.00;18.00;100903.00;;;;5053026;28;20454;-76
2021/08/12 05:03:35;;;;;;;14.57;6.33;;;17.20;1.00;18.10;100915.00;;;;5056694;28;20474;-76
2021/08/12 05:06:08;;;;;;;13.10;7.40;;;17.30;1.00;18.30;100942.00;;;;5074420;28;20472;-76
2021/08/12 05:08:38;;;;;;;11.27;7.10;;;17.50;1.00;18.50;100920.00;;;;5058533;28;20478;-76
2021/08/12 05:11:08;;;;;;;13.03;6.83;;;17.60;1.00;18.60;100912.00;;;;5074857;28;20476;-76
2021/08/12 05:13:37;;;;;;;10.50;6.70;;;17.80;1.00;18.70;100906.00;;;;5073594;28;20462;-76
2021/08/12 05:16:08;;;;;;;10.93;7.03;;;17.90;1.00;18.80;100942.00;;;;5058487;28;20449;-76
2021/08/12 05:18:42;;;;;;;10.30;6.53;;;18.00;1.00;19.00;100878.00;;;;5071493;28;20461;-77
2021/08/12 05:21:11;;;;;;;8.90;6.03;;;18.10;1.00;19.10;100925.00;;;;5053643;28;20559;-77
2021/08/12 05:23:41;;;;;;;8.50;6.67;;;18.30;1.00;19.10;100944.00;;;;5072303;28;20469;-76
2021/08/12 05:26:10;;;;;;;10.60;6.90;;;18.30;1.00;19.10;100938.00;;;;5054259;28;20542;-76
2021/08/12 05:28:38;;;;;;;7.73;6.80;;;18.40;1.00;19.30;100931.00;;;;5060165;28;20451;-76
2021/08/12 05:31:07;;;;;;;7.80;5.60;;;18.50;1.00;19.40;100953.00;;;;5072829;28;20478;-76
2021/08/12 05:33:36;;;;;;;9.07;6.40;;;18.60;1.00;19.60;100953.00;;;;5056666;28;20479;-76
2021/08/12 05:36:07;;;;;;;9.80;6.97;;;18.80;1.00;19.80;100950.00;;;;5058523;28;21014;-76
2021/08/12 05:38:36;;;;;;;9.13;6.47;;;19.00;1.00;19.80;100962.00;;;;5057284;28;20510;-76
2021/08/12 05:41:06;;;;;;;8.70;6.33;;;19.10;1.00;20.00;100928.00;;;;5051380;28;20455;-76
2021/08/12 05:43:34;;;;;;;6.47;5.83;;;19.20;1.00;20.20;100929.00;;;;5065708;28;20474;-77
2021/08/12 05:46:05;;;;;;;6.87;6.17;;;19.40;1.00;20.40;100932.00;;;;5072091;28;20459;-76
2021/08/12 05:48:35;;;;;;;8.90;6.93;;;19.50;1.00;20.40;100938.00;;;;5074306;28;20861;-76
2021/08/12 05:51:05;;;;;;;14.40;6.63;;;19.60;1.00;20.40;100922.00;;;;5053750;28;20463;-76
2021/08/12 05:53:34;;;;;;;7.10;6.20;;;19.60;1.00;20.40;100946.00;;;;5072901;28;20451;-75
2021/08/12 05:56:03;;;;;;;8.30;6.20;;;19.70;1.00;20.50;100909.00;;;;5056338;28;20492;-77
2021/08/12 05:58:35;;;;;;;8.40;6.20;;;19.80;1.00;20.60;100919.00;;;;5067384;28;20849;-75
2021/08/12 06:01:03;;;;;;;7.43;6.30;;;19.90;1.00;20.60;100858.00;;;;5055855;28;20452;-76
2021/08/12 06:03:32;;;;;;;6.47;5.60;;;20.00;1.00;20.70;100946.00;;;;5058143;28;20478;-76
2021/08/12 06:06:02;;;;;;;8.23;6.43;;;20.00;1.00;20.70;100940.00;;;;5057280;28;21247;-76
2021/08/12 06:08:33;;;;;;;7.63;5.83;;;20.10;1.00;20.80;100932.00;;;;5062744;28;20489;-75
2021/08/12 06:11:03;;;;;;;8.03;5.87;;;20.20;1.00;20.90;100937.00;;;;5071829;28;20529;-76
2021/08/12 06:13:32;;;;;;;7.37;5.83;;;20.20;1.00;21.00;100935.00;;;;5074871;28;20547;-76
2021/08/12 06:16:03;;;;;;;9.27;6.07;;;20.30;1.00;21.00;100940.00;;;;5083854;28;20446;-74
2021/08/12 06:18:33;;;;;;;6.73;5.90;;;20.30;1.00;21.10;100943.00;;;;5067879;28;20832;-75
2021/08/12 06:21:02;;;;;;;7.93;6.20;;;20.30;1.00;21.10;100919.00;;;;5061210;28;20449;-75
2021/08/12 06:23:32;;;;;;;6.90;6.20;;;20.40;1.00;21.10;100948.00;;;;5057776;28;20461;-75
2021/08/12 06:26:01;;;;;;;7.37;6.60;;;20.30;1.00;21.20;100954.00;;;;5069489;28;20480;-75
2021/08/12 06:28:31;;;;;;;8.37;6.20;;;20.30;1.00;21.20;100946.00;;;;5052255;28;20538;-75
2021/08/12 06:31:01;;;;;;;7.40;6.20;;;20.30;1.00;21.30;100943.00;;;;5071544;28;20458;-75
2021/08/12 06:33:31;;;;;;;7.03;6.33;;;20.40;1.00;21.40;100951.00;;;;5055861;28;20977;-75
2021/08/12 06:35:59;;;;;;;8.83;7.00;;;20.50;1.00;21.40;100912.00;;;;5059670;28;20538;-75
2021/08/12 06:38:28;;;;;;;7.87;6.90;;;20.50;1.00;21.40;100904.00;;;;5059909;28;20499;-76
2021/08/12 06:40:57;;;;;;;14.07;6.93;;;20.60;1.00;21.70;100928.00;;;;5077976;28;20553;-76
2021/08/12 06:43:29;;;;;;;8.73;5.70;;;20.80;1.00;21.70;100907.00;;;;5075927;28;20474;-76
2021/08/12 06:46:01;;;;;;;6.87;6.17;;;20.90;1.00;21.80;100917.00;;;;5059043;28;20513;-75
2021/08/12 06:48:33;;;;;;;7.40;6.07;;;21.00;1.00;22.10;100961.00;;;;5057303;28;21366;-75
2021/08/12 06:51:02;;;;;;;8.60;5.70;;;21.30;1.00;21.90;100951.00;;;;5062195;28;20450;-76
2021/08/12 06:53:30;;;;;;;7.07;6.37;;;21.30;1.00;21.90;100955.00;;;;5066733;28;20524;-75
2021/08/12 06:56:00;;;;;;;8.70;6.03;;;21.20;1.00;21.70;100947.00;;;;5073988;28;20541;-75
2021/08/12 06:58:28;;;;;;;6.80;5.80;;;21.10;1.00;21.60;100957.00;;;;5059001;28;20559;-76
2021/08/12 07:00:56;;;;;;;13.50;5.60;;;21.00;1.00;21.60;100970.00;;;;5071409;28;20476;-76
2021/08/12 07:03:29;;;;;;;22.77;7.87;;;20.90;1.00;21.60;100963.00;;;;5059334;28;20457;-76
2021/08/12 07:05:57;;;;;;;10.00;6.77;;;20.90;1.00;21.60;100959.00;;;;5059565;28;20485;-75
2021/08/12 07:08:26;;;;;;;9.00;6.13;;;20.90;1.00;21.60;100956.00;;;;5057092;28;20663;-76
2021/08/12 07:10:55;;;;;;;15.70;6.83;;;20.90;1.00;21.60;100950.00;;;;5077930;28;20455;-74
2021/08/12 07:13:24;;;;;;;10.67;7.43;;;20.90;1.00;21.80;100940.00;;;;5071017;28;21448;-76
2021/08/12 07:15:53;;;;;;;13.97;9.80;;;21.10;1.00;22.10;100931.00;;;;5080232;28;20600;-76
2021/08/12 07:18:21;;;;;;;8.87;6.77;;;21.30;1.00;22.20;100900.00;;;;5061397;28;20455;-76
2021/08/12 07:20:50;;;;;;;10.13;6.90;;;21.40;1.00;22.50;100919.00;;;;5088422;28;20479;-76
2021/08/12 07:23:18;;;;;;;10.60;6.90;;;21.60;1.00;22.60;100930.00;;;;5084867;28;20450;-77
2021/08/12 07:25:46;;;;;;;10.80;6.37;;;21.80;1.00;22.70;100935.00;;;;5080359;28;20493;-76
2021/08/12 07:28:15;;;;;;;8.67;6.43;;;22.00;1.00;22.80;100938.00;;;;5070036;28;20454;-76
2021/08/12 07:30:45;;;;;;;10.93;6.60;;;22.10;1.00;23.00;100938.00;;;;5059061;28;20525;-77
2021/08/12 07:33:16;;;;;;;11.13;6.33;;;22.20;1.00;23.00;100937.00;;;;5079213;28;20476;-76
2021/08/12 07:35:45;;;;;;;13.27;6.70;;;22.30;1.00;22.90;100939.00;;;;5069227;28;20484;-76
2021/08/12 07:38:13;;;;;;;11.73;6.20;;;22.30;1.00;22.80;100931.00;;;;5050345;28;20482;-76
2021/08/12 07:40:42;;;;;;;9.33;7.80;;;22.20;1.00;22.70;100939.00;;;;5073407;28;20549;-77
2021/08/12 07:43:11;;;;;;;12.10;6.80;;;22.10;1.00;22.70;100937.00;;;;5069119;28;20460;-76
2021/08/12 07:45:39;;;;;;;8.90;6.40;;;22.10;1.00;22.80;100932.00;;;;5059312;28;20478;-76
2021/08/12 07:48:09;;;;;;;14.13;12.57;;;22.20;1.00;23.00;100923.00;;;;5073911;28;20451;-75
2021/08/12 07:50:37;;;;;;;8.93;6.80;;;22.30;1.00;23.10;100936.00;;;;5058328;28;20462;-75
2021/08/12 07:53:06;;;;;;;9.20;7.20;;;22.40;1.00;23.20;100938.00;;;;5075542;28;20986;-76
2021/08/12 07:55:34;;;;;;;11.53;6.73;;;22.50;1.00;23.20;100945.00;;;;5057009;28;20479;-77
2021/08/12 07:58:05;;;;;;;11.33;5.87;;;22.70;1.00;23.30;100947.00;;;;5050512;28;20481;-76
2021/08/12 08:00:33;;;;;;;13.70;7.73;;;22.80;1.00;23.30;100944.00;;;;5078563;28;20553;-76
2021/08/12 08:03:02;;;;;;;12.60;6.63;;;22.90;1.00;23.50;100917.00;;;;5076545;28;20451;-76
2021/08/12 08:05:33;;;;;;;9.73;6.90;;;23.00;1.00;23.60;100942.00;;;;5091196;28;20501;-76
2021/08/12 08:08:05;;;;;;;10.10;8.53;;;23.10;1.00;23.60;100944.00;;;;5089742;28;20438;-76
2021/08/12 08:10:33;;;;;;;10.03;7.00;;;23.10;1.00;23.70;100941.00;;;;5080083;28;20455;-76
2021/08/12 08:13:02;;;;;;;8.63;6.40;;;23.10;1.00;23.80;100949.00;;;;5082744;28;20466;-76
2021/08/12 08:15:30;;;;;;;12.27;6.87;;;23.30;1.00;23.90;100949.00;;;;5074751;28;20482;-76
2021/08/12 08:18:01;;;;;;;11.70;7.13;;;23.50;1.00;23.90;100959.00;;;;5070559;28;20488;-76
2021/08/12 08:20:31;;;;;;;12.17;6.67;;;23.60;1.00;24.00;100956.00;;;;5056498;28;20839;-76
2021/08/12 08:23:05;;;;;;;9.17;7.43;;;23.60;1.00;24.10;100947.00;;;;5074650;28;20497;-77
2021/08/12 08:25:33;;;;;;;8.80;6.60;;;23.70;1.00;24.10;100961.00;;;;5054795;28;21059;-77
2021/08/12 08:28:04;;;;;;;11.17;7.43;;;23.80;1.00;24.20;100959.00;;;;5075662;28;21025;-77
2021/08/12 08:30:35;;;;;;;8.00;7.00;;;23.80;1.00;24.30;100952.00;;;;5072499;28;20546;-75
2021/08/12 08:33:05;;;;;;;7.87;6.77;;;24.00;1.00;24.30;100949.00;;;;5071047;28;20479;-76
2021/08/12 08:35:35;;;;;;;10.70;7.60;;;24.00;1.00;24.40;100952.00;;;;5043178;28;20480;-75
2021/08/12 08:38:04;;;;;;;11.93;7.53;;;24.10;1.00;24.40;100953.00;;;;5090475;28;20517;-75
2021/08/12 08:40:33;;;;;;;8.33;6.47;;;24.20;1.00;24.50;100924.00;;;;5058783;28;20454;-77
2021/08/12 08:43:03;;;;;;;10.70;6.87;;;24.30;1.00;24.70;100929.00;;;;5054789;28;20455;-75
2021/08/12 08:45:32;;;;;;;11.80;8.50;;;24.40;1.00;24.90;100948.00;;;;5073911;28;20479;-77
2021/08/12 08:48:04;;;;;;;23.17;20.30;;;24.70;1.00;25.10;100920.00;;;;5071265;28;20874;-74
2021/08/12 08:50:36;;;;;;;12.87;7.90;;;25.00;1.00;25.30;100912.00;;;;5056150;28;20458;-76
2021/08/12 08:53:06;;;;;;;12.83;8.50;;;25.20;1.00;25.10;100933.00;;;;5053814;28;20454;-76
2021/08/12 08:55:34;;;;;;;7.60;6.80;;;25.30;1.00;25.60;100942.00;;;;5072700;28;20570;-77
2021/08/12 08:58:04;;;;;;;10.57;6.97;;;25.60;1.00;25.80;100943.00;;;;5056515;28;20454;-76
2021/08/12 09:00:32;;;;;;;9.63;7.13;;;25.70;1.00;25.80;100950.00;;;;5053149;28;20497;-76
2021/08/12 09:03:01;;;;;;;8.67;6.93;;;25.70;1.00;25.70;100955.00;;;;5051782;28;20458;-76
2021/08/12 09:05:29;;;;;;;9.17;7.07;;;25.60;1.00;25.80;100948.00;;;;5072289;28;20548;-76
2021/08/12 09:08:01;;;;;;;8.33;7.50;;;25.60;1.00;26.00;100935.00;;;;5074802;28;20467;-76
2021/08/12 09:10:29;;;;;;;10.97;7.17;;;25.70;1.00;26.30;100935.00;;;;5075158;28;20541;-76
2021/08/12 09:12:58;;;;;;;9.07;6.60;;;26.10;1.00;26.60;100936.00;;;;5074185;28;20466;-76
2021/08/12 09:15:26;;;;;;;8.50;6.90;;;26.50;1.00;26.90;100938.00;;;;5083756;28;20568;-75
2021/08/12 09:17:59;;;;;;;8.80;7.43;;;26.70;1.00;26.80;100920.00;;;;5067401;28;20482;-75
2021/08/12 09:20:28;;;;;;;14.00;8.70;;;26.70;1.00;27.20;100927.00;;;;5065001;28;20470;-75
2021/08/12 09:23:07;;;;;;;13.00;7.37;;;26.80;1.00;27.30;100937.00;;;;5055776;28;20462;-76
2021/08/12 09:25:40;;;;;;;10.53;7.00;;;27.00;1.00;27.50;100937.00;;;;5072665;28;20502;-76
2021/08/12 09:28:19;;;;;;;13.83;7.37;;;27.10;1.00;27.60;100936.00;;;;5077340;28;20530;-77
2021/08/12 09:31:07;;;;;;;8.87;7.50;;;27.10;1.00;27.60;100928.00;;;;5055606;28;20989;-76
2021/08/12 09:33:42;;;;;;;7.27;6.60;;;27.20;1.00;27.70;100901.00;;;;5071432;28;20463;-76
2021/08/12 09:36:49;;;;;;;10.30;7.40;;;27.20;1.00;27.90;100924.00;;;;5076967;28;20475;-76
2021/08/12 09:39:22;;;;;;;8.77;6.87;;;27.40;1.00;28.10;100930.00;;;;5072207;28;20478;-75
2021/08/12 09:41:54;;;;;;;8.40;7.53;;;27.50;1.00;28.30;100937.00;;;;5057018;28;20490;-76
2021/08/12 09:44:43;;;;;;;8.00;6.50;;;27.70;1.00;28.50;100931.00;;;;5073310;28;20477;-76
2021/08/12 09:47:13;;;;;;;12.20;7.80;;;27.90;1.00;28.60;100944.00;;;;5075547;28;20480;-75
2021/08/12 09:49:48;;;;;;;7.10;6.50;;;28.00;1.00;28.60;100925.00;;;;5052902;28;20455;-76
2021/08/12 09:52:34;;;;;;;10.67;7.43;;;28.10;1.00;28.40;100951.00;;;;5072973;28;20468;-77
2021/08/12 09:55:12;;;;;;;8.50;7.70;;;27.90;1.00;28.20;100956.00;;;;5085206;28;20470;-76
2021/08/12 09:57:45;;;;;;;10.33;6.83;;;27.80;1.00;28.20;100939.00;;;;5085138;28;20468;-76
2021/08/12 10:00:29;;;;;;;8.30;7.30;;;27.70;1.00;28.20;100938.00;;;;5091337;28;20424;-76
2021/08/12 10:03:00;;;;;;;8.03;7.23;;;27.60;1.00;28.30;100934.00;;;;5075133;28;20471;-76
2021/08/12 10:05:30;;;;;;;9.13;6.70;;;27.70;1.00;28.50;100916.00;;;;5076660;28;20466;-76
2021/08/12 10:08:00;;;;;;;9.17;6.27;;;27.90;1.00;28.70;100935.00;;;;5062941;28;20463;-75
2021/08/12 10:10:30;;;;;;;9.80;7.03;;;28.10;1.00;28.80;100944.00;;;;5058463;28;20455;-76
2021/08/12 10:13:02;;;;;;;7.50;5.67;;;28.30;1.00;28.90;100936.00;;;;5052377;28;20462;-75
2021/08/12 10:15:34;;;;;;;7.57;6.30;;;28.30;1.00;29.00;100929.00;;;;5073420;28;20511;-75
2021/08/12 10:18:05;;;;;;;8.40;6.63;;;28.30;1.00;29.10;100933.00;;;;5070086;28;21601;-74
2021/08/12 10:20:36;;;;;;;8.03;6.43;;;28.20;1.00;29.20;100927.00;;;;5069478;28;20443;-75
2021/08/12 10:23:06;;;;;;;10.87;5.70;;;28.30;1.00;29.40;100937.00;;;;5057865;28;20500;-75
2021/08/12 10:25:36;;;;;;;9.33;6.90;;;28.50;1.00;29.60;100936.00;;;;5051102;28;20481;-75
2021/08/12 10:28:07;;;;;;;8.73;6.20;;;28.60;1.00;29.70;100926.00;;;;5067302;28;20482;-76
2021/08/12 10:30:37;;;;;;;9.70;7.17;;;28.60;1.00;29.80;100934.00;;;;5074905;28;20469;-75
2021/08/12 10:33:08;;;;;;;7.70;6.50;;;28.70;1.00;30.00;100941.00;;;;5058630;28;20459;-75
2021/08/12 10:35:38;;;;;;;9.00;6.67;;;28.80;1.00;30.10;100921.00;;;;5078243;28;20510;-75
2021/08/12 10:38:07;;;;;;;7.57;6.10;;;29.00;1.00;30.20;100919.00;;;;5057529;28;21060;-75
2021/08/12 10:40:39;;;;;;;13.60;8.90;;;29.10;1.00;30.30;100925.00;;;;5071599;28;20821;-75
2021/08/12 10:43:11;;;;;;;10.87;7.37;;;29.10;1.00;30.20;100917.00;;;;5089324;28;20464;-77
2021/08/12 10:45:40;;;;;;;9.90;6.67;;;29.00;1.00;30.30;100933.00;;;;5080574;28;20478;-77
2021/08/12 10:48:20;;;;;;;7.50;6.33;;;29.00;1.00;30.20;100916.00;;;;5082868;28;20473;-79
2021/08/12 10:51:06;;;;;;;6.83;6.13;;;29.00;1.00;30.20;100912.00;;;;5059116;28;20488;-77
2021/08/12 10:53:35;;;;;;;7.90;5.80;;;29.00;1.00;30.20;100925.00;;;;5061838;28;20454;-77
2021/08/12 10:56:18;;;;;;;8.27;5.87;;;28.90;1.00;30.20;100922.00;;;;5064727;28;20446;-77
2021/08/12 10:58:52;;;;;;;10.77;6.20;;;28.90;1.00;30.20;100912.00;;;;5077457;28;20516;-76
2021/08/12 11:01:38;;;;;;;7.90;6.40;;;28.80;1.00;30.30;100925.00;;;;5078017;28;20462;-77
2021/08/12 11:04:08;;;;;;;7.77;6.00;;;28.90;1.00;30.30;100916.00;;;;5067076;28;20481;-76
2021/08/12 11:06:45;;;;;;;9.43;6.73;;;29.00;1.00;30.30;100925.00;;;;5069188;28;20474;-77
2021/08/12 11:09:16;;;;;;;9.60;7.20;;;29.10;1.00;30.40;100941.00;;;;5079424;28;20526;-77